Home > Products > Valid Products > TAF

000
FTUS43 KDTX 161400 AAA
TAFDTW
TAF AMD
KDTW 161422Z 1614/1718 16005KT P6SM BKN250
     FM161900 14010KT P6SM BKN200
     FM170200 10010KT P6SM OVC150=



000
FTUS43 KDTX 161100
TAFDET
TAF
KDET 161125Z 1612/1712 18005KT P6SM SCT250
     FM161900 14010KT P6SM BKN200
     FM170200 10010KT P6SM OVC150=



000
FTUS43 KDTX 161100
TAFMBS
TAF
KMBS 161125Z 1612/1712 20005KT P6SM SCT250
     FM161900 16010KT P6SM BKN200
     FM170200 12010KT P6SM OVC150=



000
FTUS43 KDTX 161100
TAFFNT
TAF
KFNT 161125Z 1612/1712 18005KT P6SM SCT250
     FM161900 15010KT P6SM BKN200
     FM170200 11010KT P6SM OVC150=



000
FTUS43 KDTX 161100
TAFDTW
TAF
KDTW 161125Z 1612/1718 18005KT P6SM SCT250
     FM161900 14010KT P6SM BKN200
     FM170200 10010KT P6SM OVC150=



000
FTUS43 KDTX 160900 AAA
TAFDTW
TAF AMD
KDTW 160903Z 1609/1712 00000KT P6SM SKC
     FM161900 14010KT P6SM BKN200=



000
FTUS43 KDTX 160500
TAFDTW
TAF
KDTW 160523Z 1606/1712 VRB04KT P6SM SKC
     FM161800 14010KT P6SM SCT200=



000
FTUS43 KDTX 160500
TAFDET
TAF
KDET 160523Z 1606/1706 VRB04KT P6SM SKC
     FM161800 14010KT P6SM SCT200=



000
FTUS43 KDTX 160500
TAFMBS
TAF
KMBS 160523Z 1606/1706 VRB04KT P6SM SKC
     FM161800 16010KT P6SM SCT200=



000
FTUS43 KDTX 160500
TAFFNT
TAF
KFNT 160523Z 1606/1706 VRB04KT P6SM SKC
     FM161800 14010KT P6SM SCT200=



000
FTUS43 KDTX 160300 AAA
TAFDTW
TAF AMD
KDTW 160305Z 1603/1706 VRB04KT P6SM SCT050=



000
FTUS43 KDTX 152300
TAFFNT
TAF
KFNT 152324Z 1600/1624 31010KT P6SM -SHSN BKN050
     FM160100 30004KT P6SM SCT050=



000
FTUS43 KDTX 152300
TAFDET
TAF
KDET 152324Z 1600/1624 32010KT P6SM -SHSN BKN045
     FM160100 30004KT P6SM SCT050=



000
FTUS43 KDTX 152300
TAFMBS
TAF
KMBS 152324Z 1600/1624 31010KT P6SM -SHSN BKN050
     FM160100 30004KT P6SM SCT050=



000
FTUS43 KDTX 152300
TAFDTW
TAF
KDTW 152324Z 1600/1706 30010KT P6SM -SHSN BKN045
     FM160100 30004KT P6SM SCT050=



000
FTUS43 KDTX 152100 AAB
TAFDTW
TAF AMD
KDTW 152140Z 1522/1624 31013G23KT P6SM -SHSN BKN045
      TEMPO 1522/1523 1SM -SHSN
     FM160100 25004KT P6SM SCT050=



000
FTUS43 KDTX 152100 AAA
TAFDTW
TAF AMD
KDTW 152106Z 1521/1624 31013G23KT P6SM -SHSN BKN045
     FM160100 25004KT P6SM SCT050=



000
FTUS43 KDTX 151700
TAFDET
TAF
KDET 151720Z 1518/1618 32013G23KT P6SM -SHSN BKN035
     FM152000 32013G23KT P6SM -SHSN BKN045
     FM160100 25004KT P6SM SCT050=



000
FTUS43 KDTX 151700
TAFMBS
TAF
KMBS 151720Z 1518/1618 30014G24KT P6SM -SHSN BKN045
     FM152000 33013G23KT P6SM -SHSN BKN050
     FM160100 23004KT P6SM SCT050=



000
FTUS43 KDTX 151700
TAFFNT
TAF
KFNT 151720Z 1518/1618 30013G23KT P6SM -SHSN BKN045
     FM152000 33013G23KT P6SM -SHSN BKN050
     FM160100 24004KT P6SM SCT050=



000
FTUS43 KDTX 151700
TAFDTW
TAF
KDTW 151720Z 1518/1624 30013G23KT P6SM -SHSN BKN035
     FM152000 32013G23KT P6SM -SHSN BKN045
     FM160100 25004KT P6SM SCT050=



000
FTUS43 KDTX 151400 AAA
TAFDTW
TAF AMD
KDTW 151449Z 1515/1618 30013G23KT P6SM -SHSN BKN025
     FM151900 32013G23KT P6SM -SHSN BKN040
     FM160100 25004KT P6SM SCT050=



000
FTUS43 KDTX 151100
TAFFNT
TAF
KFNT 151135Z 1512/1612 32013G23KT P6SM OVC025
     FM151300 32013G23KT P6SM BKN040
      TEMPO 1513/1516 BKN025 OVC040
     FM151600 32013G23KT P6SM -SHSN BKN050
     FM160100 26005KT P6SM SCT050
     FM160800 20005KT P6SM BKN250=



000
FTUS43 KDTX 151100
TAFDTW
TAF
KDTW 151135Z 1512/1618 32013KT P6SM OVC015
     FM151300 32013G23KT P6SM BKN040
      TEMPO 1513/1516 BKN025 OVC040
     FM151600 32013G23KT P6SM -SHSN BKN050
     FM160100 26005KT P6SM SCT050
     FM160800 20005KT P6SM BKN250=



000
FTUS43 KDTX 151100
TAFDET
TAF
KDET 151135Z 1512/1612 32013KT P6SM OVC015
     FM151300 32013G23KT P6SM BKN040
      TEMPO 1513/1516 BKN025 OVC040
     FM151600 32013G23KT P6SM -SHSN BKN050
     FM160100 26005KT P6SM SCT050
     FM160800 20005KT P6SM BKN250=



000
FTUS43 KDTX 151100
TAFMBS
TAF
KMBS 151135Z 1512/1612 32013G23KT P6SM BKN040
      TEMPO 1513/1516 BKN025 OVC040
     FM151600 32013G23KT P6SM -SHSN BKN050
     FM160100 26005KT P6SM SCT050
     FM160800 20005KT P6SM BKN250=



000
FTUS43 KDTX 150900 AAA
TAFMBS
TAF AMD
KMBS 150920Z 1509/1606 30013KT 6SM -SN SCT025 OVC040
     FM151100 30013KT P6SM BKN040
     FM151600 32013G23KT P6SM BKN050
     FM152200 30007KT P6SM SCT050=



000
FTUS43 KDTX 150900 AAA
TAFFNT
TAF AMD
KFNT 150918Z 1509/1606 30010KT 4SM -SN OVC015
     FM151100 30010KT P6SM BKN025 OVC040
     FM151300 30013KT P6SM BKN040
     FM151600 32013G20KT P6SM BKN050
     FM152200 30007KT P6SM SCT050=



000
FTUS43 KDTX 150900 AAA
TAFDET
TAF AMD
KDET 150911Z 1509/1606 33010KT 4SM -SN OVC015
     FM151100 33010KT P6SM BKN025 OVC040
     FM151300 33013KT P6SM BKN040
     FM151700 33013G23KT P6SM BKN050
     FM160100 30007KT P6SM SCT050=



000
FTUS43 KDTX 150900 AAA
TAFDTW
TAF AMD
KDTW 150903Z 1509/1612 30010KT 4SM -SN OVC025
     FM151100 30010KT P6SM BKN025 OVC040
     FM151300 30013KT P6SM BKN040
     FM151700 32013G23KT P6SM BKN050
     FM160100 30007KT P6SM SCT050=



000
FTUS43 KDTX 150500
TAFMBS
TAF
KMBS 150538Z 1506/1606 32014KT 4SM -SN BKN010 OVC025
      TEMPO 1506/1508 2SM -SN BKN008 OVC025
     FM150900 30010KT P6SM BKN025
     FM151100 30010KT P6SM BKN040
     FM151600 31013G23KT P6SM BKN050
     FM152200 31007KT P6SM SCT050=



000
FTUS43 KDTX 150500
TAFDTW
TAF
KDTW 150538Z 1506/1612 32013KT 1SM -SN OVC012
      TEMPO 1506/1509 1/2SM SN VV008
     FM151000 32010KT P6SM OVC012
     FM151200 30010KT P6SM BKN040
     FM151700 31013G23KT P6SM BKN050
     FM160100 31007KT P6SM SCT050=



000
FTUS43 KDTX 150500
TAFDET
TAF
KDET 150538Z 1506/1606 32013KT 1SM -SN OVC012
      TEMPO 1506/1509 1/2SM SN VV008
     FM151000 32010KT P6SM OVC012
     FM151200 30010KT P6SM BKN040
     FM151700 31013G23KT P6SM BKN050
     FM160100 31007KT P6SM SCT050=



000
FTUS43 KDTX 150500
TAFFNT
TAF
KFNT 150538Z 1506/1606 32013KT 1SM -SN VV008
     FM150700 32013KT 4SM -SN BKN010 OVC025
      TEMPO 1507/1509 2SM -SN BKN008 OVC025
     FM150900 30010KT P6SM BKN025
     FM151100 30010KT P6SM BKN040
     FM151600 31013G23KT P6SM BKN050
     FM152200 31007KT P6SM SCT050=



000
FTUS43 KDTX 150400 AAB
TAFDET
TAF AMD
KDET 150410Z 1504/1524 33010KT 2SM -SN BKN010 OVC020
      TEMPO 1504/1507 33012G22KT 1/2SM SN OVC008
     FM150800 32010KT P6SM OVC012
     FM151100 30010KT P6SM BKN030
     FM151700 31012KT P6SM BKN050=



000
FTUS43 KDTX 150400 AAB
TAFMBS
TAF AMD
KMBS 150410Z 1504/1524 32013KT 5SM -SN SCT015 OVC025
      TEMPO 1504/1507 2SM -SN BKN015 OVC025
     FM150800 30010KT P6SM BKN030
     FM151700 31012KT P6SM BKN050=



000
FTUS43 KDTX 150400 AAB
TAFFNT
TAF AMD
KFNT 150410Z 1504/1524 32014KT 4SM -SN BKN015 OVC025
      TEMPO 1504/1507 1 1/2SM -SN BKN008 OVC025
     FM150700 31010KT 3SM -SN OVC025
     FM151000 30010KT P6SM BKN030
     FM151700 31012KT P6SM BKN050=



000
FTUS43 KDTX 150400 AAB
TAFDTW
TAF AMD
KDTW 150410Z 1504/1606 33010KT 2SM -SN BKN010 OVC020
      TEMPO 1504/1507 33012G22KT 1/2SM SN OVC008
     FM150800 32010KT P6SM OVC012
     FM151100 30010KT P6SM BKN040
     FM151700 31012KT P6SM BKN050=



000
FTUS43 KDTX 150200 AAA
TAFDTW
TAF AMD
KDTW 150226Z 1502/1606 30015KT 5SM -RA OVC025
      TEMPO 1502/1504 3SM -RA BKN010 OVC025
     FM150400 01010KT 2SM -SN OVC020
     FM150500 02010KT 1/2SM SN OVC006
     FM150800 32010KT P6SM OVC012
     FM151100 30010KT P6SM BKN040
     FM151700 31012KT P6SM BKN050=



000
FTUS43 KDTX 150200 AAA
TAFMBS
TAF AMD
KMBS 150226Z 1502/1524 32013G23KT 4SM -SN SCT015 OVC025
      TEMPO 1502/1504 1 1/2SM -SN BKN015 OVC025
     FM150800 30010KT P6SM BKN030
     FM151700 31012KT P6SM BKN050=



000
FTUS43 KDTX 150200 AAA
TAFFNT
TAF AMD
KFNT 150226Z 1502/1524 32014KT 4SM -SN BKN015 OVC025
      TEMPO 1502/1504 1 1/2SM -SN BKN008 OVC025
     FM150400 31010KT 3SM -SN OVC025
     FM151000 30010KT P6SM BKN030
     FM151700 31012KT P6SM BKN050=



000
FTUS43 KDTX 150200 AAA
TAFDET
TAF AMD
KDET 150226Z 1502/1524 30015KT 5SM -RA OVC025
      TEMPO 1502/1504 3SM -RA BKN010 OVC025
     FM150400 01010KT 2SM -SN OVC020
     FM150500 02010KT 1/2SM SN OVC006
     FM150800 32010KT P6SM OVC012
     FM151100 30010KT P6SM BKN030
     FM151700 31012KT P6SM BKN050=



000
FTUS43 KDTX 142300
TAFFNT
TAF
KFNT 142321Z 1500/1524 32014KT P6SM OVC025
     FM150300 31010KT 3SM -SN OVC025
     FM151000 30010KT P6SM BKN030
     FM151700 31012KT P6SM BKN050=



000
FTUS43 KDTX 142300
TAFDET
TAF
KDET 142321Z 1500/1524 30015KT P6SM BKN030 OVC050
      TEMPO 1503/1504 5SM -SN OVC025
     FM150400 01010KT 2SM -SN OVC025
     FM150500 02010KT 1/2SM SN OVC006
     FM150800 32010KT P6SM OVC012
     FM151100 30010KT P6SM BKN030
     FM151700 31012KT P6SM BKN050=



000
FTUS43 KDTX 142300
TAFMBS
TAF
KMBS 142321Z 1500/1524 32013G23KT P6SM SCT020 OVC030
     FM150200 31010KT 4SM -SN OVC025
     FM151000 30010KT P6SM BKN030
     FM151700 31012KT P6SM BKN050=



000
FTUS43 KDTX 142300
TAFDTW
TAF
KDTW 142321Z 1500/1606 30015KT P6SM BKN030 OVC050
      TEMPO 1503/1504 5SM -SN OVC025
     FM150400 01010KT 2SM -SN OVC025
     FM150500 02010KT 1/2SM SN OVC006
     FM150800 32010KT P6SM OVC012
     FM151100 30010KT P6SM BKN040
     FM151700 31012KT P6SM BKN050=



000
FTUS43 KDTX 142100 AAA
TAFMBS
TAF AMD
KMBS 142150Z 1422/1518 30015G25KT P6SM OVC025
     FM150200 30010KT 4SM -SN OVC025
     FM151000 30010KT P6SM BKN040=



000
FTUS43 KDTX 142100 AAA
TAFDTW
TAF AMD
KDTW 142103Z 1421/1524 30015KT P6SM BKN040
     FM150400 01010KT 2SM -SN OVC025
     FM150500 02010KT 1/2SM SN OVC006
     FM150800 32010KT P6SM OVC012
     FM151000 30010KT P6SM BKN040=



000
FTUS43 KDTX 141700
TAFDET
TAF
KDET 141725Z 1418/1518 24015G30KT P6SM OVC045
     FM142000 30015KT P6SM BKN040
     FM150400 01010KT 2SM -SN OVC025
     FM150500 02010KT 1/2SM SN OVC006
     FM150800 32010KT P6SM OVC012
     FM151000 30010KT P6SM BKN040=



000
FTUS43 KDTX 141700
TAFFNT
TAF
KFNT 141725Z 1418/1518 29015G30KT P6SM OVC025
     FM142000 32015KT P6SM BKN040
     FM150300 30010KT 3SM -SN OVC025
     FM151000 30010KT P6SM BKN040=



000
FTUS43 KDTX 141700
TAFMBS
TAF
KMBS 141725Z 1418/1518 29015G30KT P6SM OVC025
     FM150200 30010KT 4SM -SN OVC025
     FM151000 30010KT P6SM BKN040=



000
FTUS43 KDTX 141700
TAFDTW
TAF
KDTW 141725Z 1418/1524 24015G30KT P6SM OVC045
     FM142000 30015KT P6SM BKN040
     FM150400 01010KT 2SM -SN OVC025
     FM150500 02010KT 1/2SM SN OVC006
     FM150800 32010KT P6SM OVC012
     FM151000 30010KT P6SM BKN040=



000
FTUS43 KDTX 141500 AAA
TAFFNT
TAF AMD
KFNT 141502Z 1415/1512 23020G30KT P6SM OVC045
     FM141600 32015G25KT P6SM OVC015
     FM141900 32015KT P6SM BKN040
     FM150200 30010KT 3SM -SN OVC025
     FM150800 30010KT P6SM BKN040=



000
FTUS43 KDTX 141400 AAB
TAFDET
TAF AMD
KDET 141455Z 1415/1512 24020G40KT P6SM OVC030
     FM141700 32015G25KT P6SM OVC015
     FM142000 32015KT P6SM BKN040
     FM150400 30010KT 2SM -SN OVC025
     FM151000 30010KT P6SM BKN040=



000
FTUS43 KDTX 141400 AAB
TAFDTW
TAF AMD
KDTW 141435Z 1415/1518 22020G40KT P6SM OVC030
     FM141700 32015G25KT P6SM OVC015
     FM142000 32015KT P6SM BKN040
     FM150400 30010KT 2SM -SN OVC025
     FM151000 30010KT P6SM BKN040=



000
FTUS43 KDTX 141200 AAA
TAFDET
TAF AMD
KDET 141256Z 1413/1512 21030G50KT P6SM -RA OVC050
     FM141400 24020G40KT 6SM -SHRA OVC030
     FM141700 32015G25KT 4SM -SHRA BR OVC015
     FM142000 32015KT P6SM BKN040
     FM150400 30010KT 2SM -SN OVC025
     FM151000 30010KT P6SM BKN040=



000
FTUS43 KDTX 141200 AAA
TAFDTW
TAF AMD
KDTW 141255Z 1413/1518 21030G50KT P6SM -RA OVC050
     FM141400 24020G40KT 6SM -SHRA OVC030
     FM141700 32015G25KT 4SM -SHRA BR OVC015
     FM142000 32015KT P6SM BKN040
     FM150400 30010KT 2SM -SN OVC025
     FM151000 30010KT P6SM BKN040=



000
FTUS43 KDTX 141100 RRA
TAFMBS
TAF
KMBS 141145Z 1412/1512 20020G30KT 6SM -SHRA OVC045
      TEMPO 1412/1413 24025G40KT 2SM RA OVC025
     FM141400 32015G25KT 4SM -SHRA BR OVC015
     FM141800 32015KT P6SM BKN040
     FM150200 30010KT 4SM -SN OVC025
     FM150700 30010KT P6SM BKN040=



000
FTUS43 KDTX 141100 RRA
TAFFNT
TAF
KFNT 141145Z 1412/1512 20020G30KT 6SM -SHRA OVC045
      TEMPO 1413/1414 24025G40KT 2SM RA OVC025
     FM141600 32015G25KT 4SM -SHRA BR OVC015
     FM141900 32015KT P6SM BKN040
     FM150200 30010KT 3SM -SN OVC025
     FM150800 30010KT P6SM BKN040=



000
FTUS43 KDTX 141100 RRA
TAFDET
TAF
KDET 141145Z 1412/1512 20020G30KT 6SM -SHRA OVC045
      TEMPO 1414/1415 24025G40KT 2SM RA OVC025
     FM141700 32015G25KT 4SM -SHRA BR OVC015
     FM142000 32015KT P6SM BKN040
     FM150400 30010KT 2SM -SN OVC025
     FM151000 30010KT P6SM BKN040=



000
FTUS43 KDTX 141100 RRA
TAFDTW
TAF
KDTW 141145Z 1412/1518 20020G30KT 6SM -SHRA OVC045
      TEMPO 1414/1415 24025G40KT 2SM RA OVC025
     FM141700 32015G25KT 4SM -SHRA BR OVC015
     FM142000 32015KT P6SM BKN040
     FM150400 30010KT 2SM -SN OVC025
     FM151000 30010KT P6SM BKN040=



000
FTUS43 KDTX 140900 AAA
TAFDTW
TAF AMD
KDTW 140902Z 1409/1512 18015G25KT 6SM -SHRA OVC070
     FM141200 22020G35KT 4SM -SHRA BR OVC040
      TEMPO 1414/1418 3SM -TSRA BR OVC030CB
     FM142000 31015KT 5SM -SHRA BR OVC030
     FM150200 34011KT 5SM -SHRA BR OVC020
     FM150800 34011KT 6SM -SHSN BR OVC020=



000
FTUS43 KDTX 140500
TAFFNT
TAF
KFNT 140532Z 1406/1506 VRB05KT 6SM -SHRA OVC060
     FM140700 21018KT 6SM -SHRA BKN050 WS020/21055KT
     FM141200 22020G35KT 5SM -SHRA BR BKN040
      TEMPO 1412/1416 3SM -TSRA BR BKN040CB
     FM141600 32015KT 5SM -RA BR OVC025
     FM142100 34016KT P6SM OVC025
     FM150200 32011KT 5SM -SHRA BR OVC020=



000
FTUS43 KDTX 140500
TAFDTW
TAF
KDTW 140532Z 1406/1512 17013KT P6SM SCT080 BKN150 OVC200
     FM140700 21018KT P6SM -SHRA BKN080 OVC150 WS020/21055KT
     FM141200 22020G35KT 5SM -SHRA BR BKN040
      TEMPO 1414/1418 3SM -TSRA BR BKN040CB
     FM142000 31015KT 5SM -SHRA BR OVC030
     FM150200 34011KT 5SM -SHRA BR OVC020
     FM150800 34011KT 6SM -SHSN BR OVC020=



000
FTUS43 KDTX 140500
TAFMBS
TAF
KMBS 140532Z 1406/1506 VRB05KT 6SM -SHRA BR OVC003
     FM140700 21018KT 5SM -SHRA BR OVC030 WS020/21055KT
     FM141400 32015KT 3SM -RA BR OVC025
     FM142100 34016KT P6SM OVC025
     FM150300 32012KT P6SM -SN OVC020=



000
FTUS43 KDTX 140500
TAFDET
TAF
KDET 140532Z 1406/1506 21018KT P6SM -SHRA BKN080 OVC150
      WS020/21055KT
     FM141200 22020G35KT 5SM -SHRA BR BKN040
      TEMPO 1414/1418 3SM -TSRA BR BKN040CB
     FM142000 31015KT 5SM -SHRA BR OVC030
     FM150200 34011KT 5SM -SHRA BR OVC020=



000
FTUS43 KDTX 140300 AAA
TAFDTW
TAF AMD
KDTW 140307Z 1403/1506 15010KT P6SM SCT040 BKN070 BKN200
     FM140700 21018KT P6SM -SHRA BKN050 WS020/21055KT
     FM141200 22020G35KT 5SM -SHRA BR BKN040
      TEMPO 1412/1416 3SM -TSRA BR BKN040CB
     FM142000 31015KT 5SM -SHRA BR OVC030
     FM150200 33011KT 5SM -SHRA BR OVC020=



000
FTUS43 KDTX 140200 AAA
TAFFNT
TAF AMD
KFNT 140243Z 1403/1424 13011KT P6SM BKN050 OVC120
      TEMPO 1403/1405 3SM -TSRA BR BKN030CB OVC070
     FM140500 21018KT P6SM -SHRA BKN050 WS020/21055KT
     FM141200 22020G35KT 5SM -SHRA BR BKN040
      TEMPO 1412/1416 3SM -TSRA BR BKN040CB
     FM141600 32015KT 5SM -RA BR OVC025=



000
FTUS43 KDTX 132300
TAFDTW
TAF
KDTW 132338Z 1400/1506 22012G20KT P6SM SCT040 BKN070 BKN200
     FM140200 21012KT P6SM BKN050 OVC120
     FM140700 21018KT P6SM -SHRA BKN050 WS020/21055KT
     FM141200 22020G35KT 5SM -SHRA BR BKN040
      TEMPO 1412/1416 3SM -TSRA BR BKN040CB
     FM142000 31015KT 5SM -SHRA BR OVC030
     FM150200 33011KT 5SM -SHRA BR OVC020=



000
FTUS43 KDTX 132300
TAFFNT
TAF
KFNT 132338Z 1400/1424 28012KT P6SM BKN040 BKN200
     FM140200 21013KT P6SM BKN050 OVC120
     FM140500 21018KT P6SM -SHRA BKN050 WS020/21055KT
     FM141200 22020G35KT 5SM -SHRA BR BKN040
      TEMPO 1412/1416 3SM -TSRA BR BKN040CB
     FM141600 32015KT 5SM -RA BR OVC025=



000
FTUS43 KDTX 132300
TAFDET
TAF
KDET 132338Z 1400/1424 22012G20KT P6SM SCT040 BKN070 BKN200
     FM140200 21012KT P6SM BKN050 OVC120
     FM140700 21018KT P6SM -SHRA BKN050 WS020/21055KT
     FM141200 22020G35KT 5SM -SHRA BR BKN040
      TEMPO 1412/1416 3SM -TSRA BR BKN040CB
     FM142000 31015KT 5SM -SHRA BR OVC030=



000
FTUS43 KDTX 132300
TAFMBS
TAF
KMBS 132338Z 1400/1424 25012KT P6SM BKN040 BKN080
      TEMPO 1400/1401 03014G24KT 4SM -TSRA OVC040CB
     FM140100 20012KT 3SM -TSRA BR BKN030CB OVC070
     FM140700 21018KT 5SM -SHRA OVC030 WS020/21055KT
     FM141400 34015KT 5SM -RA BR OVC025=



000
FTUS43 KDTX 132100 AAA
TAFDTW
TAF AMD
KDTW 132107Z 1321/1424 22018G28KT P6SM SCT040 BKN070 BKN200
     FM140100 21013KT P6SM BKN050 OVC120
     FM140700 21018KT P6SM -SHRA BKN050 WS020/21055KT
     FM141200 22020G35KT 5SM -SHRA BR BKN040
      TEMPO 1412/1416 3SM -TSRA BR BKN040CB
     FM141800 32015KT 5SM -SHRA BR OVC030=



000
FTUS43 KDTX 131900 AAA
TAFFNT
TAF AMD
KFNT 131900Z 1319/1418 28015G22KT P6SM BKN040 BKN200
      TEMPO 1322/1401 4SM -TSRA OVC040CB
     FM140100 21013KT P6SM BKN050 OVC120
     FM140500 21018KT P6SM -SHRA BKN050 WS020/21055KT
     FM141200 22020G35KT 5SM -SHRA BR BKN040
      TEMPO 1412/1416 3SM -TSRA BR BKN040CB
     FM141600 32015KT 5SM -RA BR OVC025=



000
FTUS43 KDTX 131700
TAFMBS
TAF
KMBS 131726Z 1318/1418 25012KT P6SM BKN035 BKN200
      TEMPO 1323/1401 4SM -TSRA OVC040CB
     FM140100 20012KT 3SM -TSRA BR BKN030CB OVC070
     FM140700 21018KT 5SM -SHRA OVC030 WS020/21055KT
     FM141400 34015KT 5SM -RA BR OVC025=



000
FTUS43 KDTX 131700
TAFDET
TAF
KDET 131726Z 1318/1418 22018G28KT P6SM SCT040 BKN070 BKN200
     FM140100 21013KT P6SM BKN050 OVC120
     FM140700 21018KT P6SM -SHRA BKN050 WS020/21055KT
     FM141200 22020G35KT 5SM -SHRA BR BKN040
      TEMPO 1412/1416 3SM -TSRA BR BKN040CB=



000
FTUS43 KDTX 131700
TAFDTW
TAF
KDTW 131726Z 1318/1424 22018G28KT P6SM SCT040 BKN070 BKN200
     FM140100 21013KT P6SM BKN050 OVC120
     FM140700 21018KT P6SM -SHRA BKN050 WS020/21055KT
     FM141200 22020G35KT 5SM -SHRA BR BKN040
      TEMPO 1412/1416 3SM -TSRA BR BKN040CB
     FM141800 32015KT 5SM -SHRA BR OVC030=



000
FTUS43 KDTX 131700
TAFFNT
TAF
KFNT 131726Z 1318/1418 23015G25KT P6SM BKN040 BKN200
      TEMPO 1322/1401 4SM -TSRA OVC040CB
     FM140100 21013KT P6SM BKN050 OVC120
     FM140500 21018KT P6SM -SHRA BKN050 WS020/21055KT
     FM141200 22020G35KT 5SM -SHRA BR BKN040
      TEMPO 1412/1416 3SM -TSRA BR BKN040CB
     FM141600 32015KT 5SM -RA BR OVC025=



    US Dept of Commerce
    National Oceanic and Atmospheric Administration
    National Weather Service
    1325 East West Highway
    Silver Spring, MD 20910
    Page Author: NWS Internet Services Team
Disclaimer
Information Quality
Credits
Glossary
Privacy Policy
Freedom of Information Act (FOIA)
About Us
Career Opportunities